sensor_id;sensor_type;location;lat;lon;timestamp;pressure;altitude;pressure_sealevel;temperature;humidity
23164;BME280;31429;42.674;23.350;2023-10-13T02:19:10;95210.81;;;10.71;100.00
23164;BME280;31429;42.674;23.350;2023-10-13T02:30:44;95221.13;;;10.69;100.00
23164;BME280;31429;42.674;23.350;2023-10-13T02:31:48;95224.13;;;10.54;100.00
23164;BME280;31429;42.674;23.350;2023-10-13T02:33:13;95211.69;;;10.42;100.00
23164;BME280;31429;42.674;23.350;2023-10-13T02:34:34;95206.66;;;10.41;100.00
23164;BME280;31429;42.674;23.350;2023-10-13T02:38:28;95210.78;;;10.72;100.00
23164;BME280;31429;42.674;23.350;2023-10-13T02:40:15;95203.22;;;10.69;100.00
23164;BME280;31429;42.674;23.350;2023-10-13T02:43:37;95213.22;;;10.49;100.00
23164;BME280;31429;42.674;23.350;2023-10-13T03:16:44;95223.22;;;10.27;100.00
23164;BME280;31429;42.674;23.350;2023-10-13T03:18:25;95228.03;;;10.38;100.00
23164;BME280;31429;42.674;23.350;2023-10-13T03:19:47;95237.66;;;10.30;100.00
23164;BME280;31429;42.674;23.350;2023-10-13T03:21:42;95227.88;;;10.13;100.00
23164;BME280;31429;42.674;23.350;2023-10-13T03:23:19;95222.03;;;10.08;100.00
23164;BME280;31429;42.674;23.350;2023-10-13T03:24:29;95222.88;;;10.09;100.00
23164;BME280;31429;42.674;23.350;2023-10-13T03:26:01;95226.16;;;10.14;100.00
23164;BME280;31429;42.674;23.350;2023-10-13T03:27:51;95223.09;;;10.32;100.00
23164;BME280;31429;42.674;23.350;2023-10-13T04:19:39;95181.47;;;9.68;100.00
23164;BME280;31429;42.674;23.350;2023-10-13T04:21:00;95192.47;;;9.70;100.00
23164;BME280;31429;42.674;23.350;2023-10-13T04:22:08;95175.41;;;9.72;100.00
23164;BME280;31429;42.674;23.350;2023-10-13T04:23:21;95186.47;;;9.73;100.00
23164;BME280;31429;42.674;23.350;2023-10-13T04:24:27;95183.97;;;9.70;100.00
23164;BME280;31429;42.674;23.350;2023-10-13T04:25:37;95196.81;;;9.67;100.00
23164;BME280;31429;42.674;23.350;2023-10-13T04:26:47;95187.47;;;9.66;100.00
23164;BME280;31429;42.674;23.350;2023-10-13T04:28:08;95196.78;;;9.68;100.00
23164;BME280;31429;42.674;23.350;2023-10-13T04:29:12;95197.47;;;9.73;100.00
23164;BME280;31429;42.674;23.350;2023-10-13T04:30:28;95196.00;;;9.65;100.00
23164;BME280;31429;42.674;23.350;2023-10-13T04:31:48;95198.56;;;9.65;100.00
23164;BME280;31429;42.674;23.350;2023-10-13T04:33:01;95194.56;;;9.56;100.00
23164;BME280;31429;42.674;23.350;2023-10-13T04:34:18;95193.72;;;9.56;100.00
23164;BME280;31429;42.674;23.350;2023-10-13T04:35:29;95204.72;;;9.58;100.00
23164;BME280;31429;42.674;23.350;2023-10-13T04:36:36;95200.38;;;9.61;100.00
23164;BME280;31429;42.674;23.350;2023-10-13T04:37:45;95201.53;;;9.50;100.00
23164;BME280;31429;42.674;23.350;2023-10-13T04:38:50;95206.41;;;9.59;100.00
23164;BME280;31429;42.674;23.350;2023-10-13T04:40:07;95204.97;;;9.49;100.00
23164;BME280;31429;42.674;23.350;2023-10-13T04:41:11;95199.63;;;9.58;100.00
23164;BME280;31429;42.674;23.350;2023-10-13T04:42:22;95204.50;;;9.65;100.00
23164;BME280;31429;42.674;23.350;2023-10-13T04:43:42;95205.41;;;9.64;100.00
23164;BME280;31429;42.674;23.350;2023-10-13T04:45:06;95206.03;;;9.72;100.00
23164;BME280;31429;42.674;23.350;2023-10-13T04:46:27;95213.78;;;9.68;100.00
23164;BME280;31429;42.674;23.350;2023-10-13T04:48:01;95209.59;;;9.67;100.00
23164;BME280;31429;42.674;23.350;2023-10-13T04:49:19;95214.22;;;9.83;100.00
23164;BME280;31429;42.674;23.350;2023-10-13T04:50:36;95213.25;;;9.88;100.00
23164;BME280;31429;42.674;23.350;2023-10-13T04:51:44;95209.81;;;9.90;100.00
23164;BME280;31429;42.674;23.350;2023-10-13T04:52:59;95222.84;;;9.79;100.00
23164;BME280;31429;42.674;23.350;2023-10-13T04:54:03;95216.94;;;9.77;100.00
23164;BME280;31429;42.674;23.350;2023-10-13T04:55:26;95222.38;;;9.96;100.00
23164;BME280;31429;42.674;23.350;2023-10-13T04:56:32;95229.41;;;10.19;100.00
23164;BME280;31429;42.674;23.350;2023-10-13T04:57:45;95231.94;;;10.20;100.00
23164;BME280;31429;42.674;23.350;2023-10-13T04:58:46;95238.00;;;10.16;100.00
23164;BME280;31429;42.674;23.350;2023-10-13T05:00:08;95233.00;;;10.12;100.00
23164;BME280;31429;42.674;23.350;2023-10-13T05:01:11;95237.84;;;10.22;100.00
23164;BME280;31429;42.674;23.350;2023-10-13T05:02:24;95252.00;;;10.34;100.00
23164;BME280;31429;42.674;23.350;2023-10-13T05:03:37;95250.41;;;10.30;100.00
23164;BME280;31429;42.674;23.350;2023-10-13T05:05:08;95248.97;;;10.21;100.00
23164;BME280;31429;42.674;23.350;2023-10-13T05:06:26;95259.03;;;10.26;100.00
23164;BME280;31429;42.674;23.350;2023-10-13T05:07:50;95257.25;;;10.29;100.00
23164;BME280;31429;42.674;23.350;2023-10-13T05:09:09;95252.56;;;10.44;100.00
23164;BME280;31429;42.674;23.350;2023-10-13T05:10:29;95253.41;;;10.44;100.00
23164;BME280;31429;42.674;23.350;2023-10-13T05:11:49;95260.78;;;10.53;100.00
23164;BME280;31429;42.674;23.350;2023-10-13T05:25:47;95270.13;;;10.56;100.00
23164;BME280;31429;42.674;23.350;2023-10-13T05:27:06;95279.25;;;10.63;100.00
23164;BME280;31429;42.674;23.350;2023-10-13T05:28:25;95281.56;;;10.72;100.00
23164;BME280;31429;42.674;23.350;2023-10-13T05:29:46;95281.19;;;10.84;100.00
23164;BME280;31429;42.674;23.350;2023-10-13T05:31:06;95290.09;;;10.71;100.00
23164;BME280;31429;42.674;23.350;2023-10-13T05:32:25;95288.31;;;10.73;100.00
23164;BME280;31429;42.674;23.350;2023-10-13T05:33:45;95289.88;;;10.78;100.00
23164;BME280;31429;42.674;23.350;2023-10-13T05:35:05;95289.06;;;10.76;100.00
23164;BME280;31429;42.674;23.350;2023-10-13T05:40:37;95301.06;;;11.02;100.00
23164;BME280;31429;42.674;23.350;2023-10-13T05:41:58;95300.13;;;11.05;100.00
23164;BME280;31429;42.674;23.350;2023-10-13T05:43:17;95303.50;;;11.07;100.00
23164;BME280;31429;42.674;23.350;2023-10-13T05:44:37;95301.75;;;11.07;100.00
23164;BME280;31429;42.674;23.350;2023-10-13T05:45:47;95295.00;;;11.06;100.00
23164;BME280;31429;42.674;23.350;2023-10-13T05:47:07;95302.59;;;11.08;100.00
23164;BME280;31429;42.674;23.350;2023-10-13T05:48:26;95309.34;;;11.10;100.00
23164;BME280;31429;42.674;23.350;2023-10-13T05:49:46;95298.03;;;11.17;100.00
23164;BME280;31429;42.674;23.350;2023-10-13T05:51:10;95308.03;;;11.25;100.00
23164;BME280;31429;42.674;23.350;2023-10-13T05:52:32;95302.78;;;11.29;100.00
23164;BME280;31429;42.674;23.350;2023-10-13T05:53:51;95296.13;;;11.50;100.00
23164;BME280;31429;42.674;23.350;2023-10-13T05:55:11;95300.19;;;11.55;100.00
23164;BME280;31429;42.674;23.350;2023-10-13T05:56:30;95289.66;;;11.65;100.00
23164;BME280;31429;42.674;23.350;2023-10-13T05:57:51;95306.63;;;11.69;100.00
23164;BME280;31429;42.674;23.350;2023-10-13T05:59:10;95301.72;;;11.61;100.00
23164;BME280;31429;42.674;23.350;2023-10-13T06:00:29;95302.38;;;11.69;100.00
23164;BME280;31429;42.674;23.350;2023-10-13T06:01:48;95311.97;;;11.87;100.00
23164;BME280;31429;42.674;23.350;2023-10-13T06:03:08;95308.38;;;11.93;100.00
23164;BME280;31429;42.674;23.350;2023-10-13T06:04:27;95299.03;;;11.92;100.00
23164;BME280;31429;42.674;23.350;2023-10-13T06:05:48;95313.47;;;11.94;100.00
23164;BME280;31429;42.674;23.350;2023-10-13T06:07:08;95314.13;;;11.99;100.00
23164;BME280;31429;42.674;23.350;2023-10-13T06:08:27;95324.31;;;12.01;100.00
23164;BME280;31429;42.674;23.350;2023-10-13T06:09:46;95321.66;;;11.79;100.00
23164;BME280;31429;42.674;23.350;2023-10-13T06:11:13;95326.00;;;11.77;100.00
23164;BME280;31429;42.674;23.350;2023-10-13T06:12:32;95316.31;;;11.85;100.00
23164;BME280;31429;42.674;23.350;2023-10-13T06:13:53;95321.59;;;12.05;100.00
23164;BME280;31429;42.674;23.350;2023-10-13T06:15:12;95323.72;;;12.18;100.00
23164;BME280;31429;42.674;23.350;2023-10-13T06:16:33;95318.34;;;12.25;100.00
23164;BME280;31429;42.674;23.350;2023-10-13T06:17:52;95312.78;;;12.37;100.00
23164;BME280;31429;42.674;23.350;2023-10-13T06:19:11;95320.66;;;12.56;100.00
23164;BME280;31429;42.674;23.350;2023-10-13T06:20:31;95330.59;;;12.65;100.00
23164;BME280;31429;42.674;23.350;2023-10-13T06:21:50;95338.94;;;12.70;100.00
23164;BME280;31429;42.674;23.350;2023-10-13T06:23:10;95329.75;;;12.64;100.00
23164;BME280;31429;42.674;23.350;2023-10-13T06:24:29;95339.78;;;12.71;100.00
23164;BME280;31429;42.674;23.350;2023-10-13T06:25:52;95344.06;;;12.70;100.00
23164;BME280;31429;42.674;23.350;2023-10-13T06:27:30;95342.06;;;12.78;100.00
23164;BME280;31429;42.674;23.350;2023-10-13T06:28:49;95344.50;;;12.81;100.00
23164;BME280;31429;42.674;23.350;2023-10-13T06:29:51;95347.28;;;12.98;100.00
23164;BME280;31429;42.674;23.350;2023-10-13T06:30:56;95344.41;;;13.06;100.00
23164;BME280;31429;42.674;23.350;2023-10-13T06:31:57;95344.94;;;13.15;100.00
23164;BME280;31429;42.674;23.350;2023-10-13T06:32:58;95352.34;;;13.23;100.00
23164;BME280;31429;42.674;23.350;2023-10-13T06:33:59;95353.81;;;13.30;100.00
23164;BME280;31429;42.674;23.350;2023-10-13T06:35:05;95357.78;;;13.37;100.00
23164;BME280;31429;42.674;23.350;2023-10-13T06:36:18;95360.66;;;13.51;100.00
23164;BME280;31429;42.674;23.350;2023-10-13T06:37:19;95367.88;;;13.63;100.00
23164;BME280;31429;42.674;23.350;2023-10-13T06:38:24;95362.41;;;13.71;100.00
23164;BME280;31429;42.674;23.350;2023-10-13T06:39:25;95361.78;;;13.88;100.00
23164;BME280;31429;42.674;23.350;2023-10-13T06:44:31;95366.56;;;13.75;100.00
23164;BME280;31429;42.674;23.350;2023-10-13T06:45:36;95369.84;;;13.78;100.00
23164;BME280;31429;42.674;23.350;2023-10-13T06:46:36;95361.97;;;14.03;100.00
23164;BME280;31429;42.674;23.350;2023-10-13T06:47:38;95360.78;;;14.32;100.00
23164;BME280;31429;42.674;23.350;2023-10-13T06:48:43;95362.72;;;14.66;100.00
23164;BME280;31429;42.674;23.350;2023-10-13T06:49:46;95365.53;;;14.80;100.00
23164;BME280;31429;42.674;23.350;2023-10-13T06:50:56;95373.38;;;14.77;100.00
23164;BME280;31429;42.674;23.350;2023-10-13T06:52:03;95373.22;;;14.61;100.00
23164;BME280;31429;42.674;23.350;2023-10-13T06:53:06;95373.75;;;14.49;100.00
23164;BME280;31429;42.674;23.350;2023-10-13T06:54:07;95372.31;;;14.42;100.00
23164;BME280;31429;42.674;23.350;2023-10-13T06:55:20;95369.00;;;14.40;100.00
23164;BME280;31429;42.674;23.350;2023-10-13T06:56:28;95375.16;;;14.56;100.00
23164;BME280;31429;42.674;23.350;2023-10-13T06:57:29;95368.13;;;14.60;100.00
23164;BME280;31429;42.674;23.350;2023-10-13T06:58:35;95371.88;;;14.73;100.00
23164;BME280;31429;42.674;23.350;2023-10-13T06:59:35;95374.50;;;14.90;100.00
23164;BME280;31429;42.674;23.350;2023-10-13T07:00:42;95381.50;;;15.07;100.00
23164;BME280;31429;42.674;23.350;2023-10-13T07:01:53;95365.81;;;15.11;100.00
23164;BME280;31429;42.674;23.350;2023-10-13T07:02:54;95359.91;;;15.46;100.00
23164;BME280;31429;42.674;23.350;2023-10-13T07:04:09;95370.19;;;15.65;100.00
23164;BME280;31429;42.674;23.350;2023-10-13T07:05:14;95358.03;;;15.67;100.00
23164;BME280;31429;42.674;23.350;2023-10-13T07:06:15;95354.84;;;15.62;100.00
23164;BME280;31429;42.674;23.350;2023-10-13T07:07:20;95353.16;;;15.80;100.00
23164;BME280;31429;42.674;23.350;2023-10-13T07:10:20;95362.88;;;16.09;100.00
23164;BME280;31429;42.674;23.350;2023-10-13T07:11:30;95347.03;;;16.49;100.00
23164;BME280;31429;42.674;23.350;2023-10-13T07:12:34;95347.59;;;16.39;100.00
23164;BME280;31429;42.674;23.350;2023-10-13T07:13:35;95345.34;;;16.16;100.00
23164;BME280;31429;42.674;23.350;2023-10-13T07:14:59;95364.59;;;16.43;100.00
23164;BME280;31429;42.674;23.350;2023-10-13T07:16:13;95368.63;;;16.14;100.00
23164;BME280;31429;42.674;23.350;2023-10-13T07:17:14;95344.72;;;16.62;100.00
23164;BME280;31429;42.674;23.350;2023-10-13T07:18:24;95349.78;;;16.96;100.00
23164;BME280;31429;42.674;23.350;2023-10-13T07:19:28;95357.47;;;17.29;100.00
23164;BME280;31429;42.674;23.350;2023-10-13T07:20:29;95353.91;;;16.83;100.00
23164;BME280;31429;42.674;23.350;2023-10-13T07:21:31;95369.22;;;16.71;100.00
23164;BME280;31429;42.674;23.350;2023-10-13T07:22:32;95375.22;;;16.71;100.00
23164;BME280;31429;42.674;23.350;2023-10-13T07:23:43;95375.53;;;16.48;100.00
23164;BME280;31429;42.674;23.350;2023-10-13T07:33:58;95361.53;;;16.69;100.00
23164;BME280;31429;42.674;23.350;2023-10-13T07:35:06;95354.16;;;16.79;100.00
23164;BME280;31429;42.674;23.350;2023-10-13T07:36:12;95357.69;;;16.60;100.00
23164;BME280;31429;42.674;23.350;2023-10-13T07:37:16;95370.28;;;16.32;100.00
23164;BME280;31429;42.674;23.350;2023-10-13T07:38:17;95371.44;;;16.09;100.00
23164;BME280;31429;42.674;23.350;2023-10-13T07:39:21;95355.59;;;16.00;100.00
23164;BME280;31429;42.674;23.350;2023-10-13T07:40:24;95361.41;;;16.21;100.00
23164;BME280;31429;42.674;23.350;2023-10-13T07:41:27;95363.97;;;16.38;100.00
23164;BME280;31429;42.674;23.350;2023-10-13T07:42:33;95362.63;;;16.48;100.00
23164;BME280;31429;42.674;23.350;2023-10-13T07:43:39;95351.56;;;16.79;100.00
23164;BME280;31429;42.674;23.350;2023-10-13T07:44:40;95354.22;;;17.41;100.00
23164;BME280;31429;42.674;23.350;2023-10-13T07:45:47;95358.53;;;17.09;100.00
23164;BME280;31429;42.674;23.350;2023-10-13T07:46:59;95343.03;;;16.94;100.00
23164;BME280;31429;42.674;23.350;2023-10-13T07:48:00;95351.25;;;17.00;100.00
23164;BME280;31429;42.674;23.350;2023-10-13T07:49:03;95338.69;;;17.57;100.00
23164;BME280;31429;42.674;23.350;2023-10-13T07:50:11;95342.59;;;17.48;100.00
23164;BME280;31429;42.674;23.350;2023-10-13T07:51:52;95347.41;;;17.56;100.00
23164;BME280;31429;42.674;23.350;2023-10-13T07:52:57;95357.63;;;17.57;100.00
23164;BME280;31429;42.674;23.350;2023-10-13T07:54:28;95348.19;;;17.88;100.00
23164;BME280;31429;42.674;23.350;2023-10-13T07:55:29;95352.41;;;17.89;100.00
23164;BME280;31429;42.674;23.350;2023-10-13T07:56:33;95354.88;;;17.60;98.55
23164;BME280;31429;42.674;23.350;2023-10-13T07:57:34;95355.66;;;17.31;100.00
23164;BME280;31429;42.674;23.350;2023-10-13T07:58:35;95357.00;;;16.90;100.00
23164;BME280;31429;42.674;23.350;2023-10-13T07:59:56;95359.44;;;16.93;100.00
23164;BME280;31429;42.674;23.350;2023-10-13T08:01:26;95362.09;;;16.58;100.00
23164;BME280;31429;42.674;23.350;2023-10-13T08:02:27;95362.38;;;16.52;100.00
23164;BME280;31429;42.674;23.350;2023-10-13T08:03:47;95362.81;;;16.78;100.00
23164;BME280;31429;42.674;23.350;2023-10-13T08:04:51;95363.91;;;16.89;100.00
23164;BME280;31429;42.674;23.350;2023-10-13T08:05:54;95352.28;;;17.13;100.00
23164;BME280;31429;42.674;23.350;2023-10-13T08:09:10;95335.16;;;18.19;100.00
23164;BME280;31429;42.674;23.350;2023-10-13T08:10:35;95322.66;;;18.69;100.00
23164;BME280;31429;42.674;23.350;2023-10-13T08:11:36;95330.91;;;18.76;100.00
23164;BME280;31429;42.674;23.350;2023-10-13T08:12:38;95339.03;;;18.70;93.07
23164;BME280;31429;42.674;23.350;2023-10-13T08:13:42;95330.50;;;18.96;100.00
23164;BME280;31429;42.674;23.350;2023-10-13T08:14:47;95335.78;;;19.09;97.88
23164;BME280;31429;42.674;23.350;2023-10-13T08:15:49;95346.78;;;19.40;100.00
23164;BME280;31429;42.674;23.350;2023-10-13T08:16:50;95345.66;;;19.16;87.46
23164;BME280;31429;42.674;23.350;2023-10-13T08:18:07;95341.81;;;18.67;87.42
23164;BME280;31429;42.674;23.350;2023-10-13T08:25:38;95348.38;;;18.86;87.20
23164;BME280;31429;42.674;23.350;2023-10-13T08:26:58;95348.03;;;18.64;86.69
23164;BME280;31429;42.674;23.350;2023-10-13T08:28:18;95350.44;;;18.37;90.36
23164;BME280;31429;42.674;23.350;2023-10-13T08:30:15;95356.66;;;18.19;88.91
23164;BME280;31429;42.674;23.350;2023-10-13T08:31:47;95357.47;;;18.06;95.47
23164;BME280;31429;42.674;23.350;2023-10-13T08:33:23;95360.81;;;18.08;93.52
23164;BME280;31429;42.674;23.350;2023-10-13T08:34:51;95361.31;;;18.28;94.17
23164;BME280;31429;42.674;23.350;2023-10-13T08:36:17;95363.03;;;18.14;94.19
23164;BME280;31429;42.674;23.350;2023-10-13T08:37:32;95353.19;;;18.34;96.00
23164;BME280;31429;42.674;23.350;2023-10-13T08:39:08;95348.09;;;18.49;94.91
23164;BME280;31429;42.674;23.350;2023-10-13T08:40:38;95344.31;;;18.82;89.85
23164;BME280;31429;42.674;23.350;2023-10-13T08:42:15;95337.28;;;18.99;87.61
23164;BME280;31429;42.674;23.350;2023-10-13T08:43:28;95337.69;;;19.33;92.26
23164;BME280;31429;42.674;23.350;2023-10-13T08:45:06;95341.75;;;19.37;83.92
23164;BME280;31429;42.674;23.350;2023-10-13T08:50:52;95347.41;;;19.58;81.72
23164;BME280;31429;42.674;23.350;2023-10-13T09:14:25;95333.72;;;20.35;94.98
23164;BME280;31429;42.674;23.350;2023-10-13T09:15:53;95330.09;;;20.37;82.74
23164;BME280;31429;42.674;23.350;2023-10-13T09:17:42;95332.25;;;20.31;80.79
23164;BME280;31429;42.674;23.350;2023-10-13T09:36:39;95313.25;;;20.55;76.97
23164;BME280;31429;42.674;23.350;2023-10-13T09:39:19;95308.56;;;20.60;72.94
23164;BME280;31429;42.674;23.350;2023-10-13T09:40:45;95305.13;;;20.73;71.30
23164;BME280;31429;42.674;23.350;2023-10-13T09:42:07;95302.75;;;20.57;77.72
23164;BME280;31429;42.674;23.350;2023-10-13T09:43:36;95292.13;;;20.85;72.41
23164;BME280;31429;42.674;23.350;2023-10-13T09:45:01;95296.84;;;21.29;83.64
23164;BME280;31429;42.674;23.350;2023-10-13T09:56:40;95299.31;;;20.82;75.25
23164;BME280;31429;42.674;23.350;2023-10-13T09:58:27;95293.44;;;21.16;72.31
23164;BME280;31429;42.674;23.350;2023-10-13T10:00:13;95287.88;;;21.33;70.76
23164;BME280;31429;42.674;23.350;2023-10-13T10:01:40;95285.28;;;21.33;69.04
23164;BME280;31429;42.674;23.350;2023-10-13T10:03:41;95268.97;;;21.55;72.59
23164;BME280;31429;42.674;23.350;2023-10-13T11:09:01;95229.94;;;23.56;54.47
23164;BME280;31429;42.674;23.350;2023-10-13T11:38:03;95195.00;;;24.21;52.14
23164;BME280;31429;42.674;23.350;2023-10-13T11:39:12;95194.41;;;24.17;59.91
23164;BME280;31429;42.674;23.350;2023-10-13T11:42:02;95187.16;;;24.21;50.09
23164;BME280;31429;42.674;23.350;2023-10-13T11:46:50;95176.41;;;24.24;62.52
23164;BME280;31429;42.674;23.350;2023-10-13T11:48:37;95180.03;;;24.32;56.94
23164;BME280;31429;42.674;23.350;2023-10-13T11:51:39;95181.94;;;24.51;50.64
23164;BME280;31429;42.674;23.350;2023-10-13T11:52:56;95183.38;;;24.34;54.06
23164;BME280;31429;42.674;23.350;2023-10-13T11:53:59;95179.56;;;24.48;50.91
23164;BME280;31429;42.674;23.350;2023-10-13T12:00:16;95178.16;;;24.44;49.84
23164;BME280;31429;42.674;23.350;2023-10-13T12:01:37;95173.19;;;24.11;64.64
23164;BME280;31429;42.674;23.350;2023-10-13T12:08:27;95163.94;;;24.27;48.04
23164;BME280;31429;42.674;23.350;2023-10-13T12:10:41;95163.09;;;24.27;46.24
23164;BME280;31429;42.674;23.350;2023-10-13T12:12:30;95161.41;;;24.16;48.64
23164;BME280;31429;42.674;23.350;2023-10-13T12:13:56;95159.78;;;24.25;49.00
23164;BME280;31429;42.674;23.350;2023-10-13T12:20:27;95157.63;;;23.88;67.33
23164;BME280;31429;42.674;23.350;2023-10-13T12:50:10;95138.88;;;24.25;48.12
23164;BME280;31429;42.674;23.350;2023-10-13T12:51:25;95143.16;;;24.26;47.92
23164;BME280;31429;42.674;23.350;2023-10-13T12:52:48;95144.28;;;24.33;47.39
23164;BME280;31429;42.674;23.350;2023-10-13T12:53:50;95141.03;;;24.40;50.44
23164;BME280;31429;42.674;23.350;2023-10-13T12:54:51;95143.94;;;24.47;48.89
23164;BME280;31429;42.674;23.350;2023-10-13T12:56:10;95146.28;;;24.50;55.94
23164;BME280;31429;42.674;23.350;2023-10-13T12:57:14;95142.72;;;24.51;54.40
23164;BME280;31429;42.674;23.350;2023-10-13T13:07:23;95140.66;;;24.24;48.40
23164;BME280;31429;42.674;23.350;2023-10-13T13:08:29;95134.44;;;24.16;62.35
23164;BME280;31429;42.674;23.350;2023-10-13T13:09:51;95126.66;;;24.04;50.20
23164;BME280;31429;42.674;23.350;2023-10-13T13:11:58;95128.69;;;24.22;62.57
23164;BME280;31429;42.674;23.350;2023-10-13T13:16:29;95136.16;;;24.06;65.29
23164;BME280;31429;42.674;23.350;2023-10-13T13:22:59;95137.16;;;24.35;54.63
23164;BME280;31429;42.674;23.350;2023-10-13T13:24:20;95137.53;;;24.30;48.99
23164;BME280;31429;42.674;23.350;2023-10-13T13:31:43;95135.41;;;23.73;68.89
23164;BME280;31429;42.674;23.350;2023-10-13T13:36:58;95126.03;;;23.91;62.17
23164;BME280;31429;42.674;23.350;2023-10-13T13:38:19;95134.56;;;23.93;51.31
23164;BME280;31429;42.674;23.350;2023-10-13T13:47:13;95135.97;;;23.97;68.06
23164;BME280;31429;42.674;23.350;2023-10-13T13:50:40;95135.97;;;24.18;48.18
23164;BME280;31429;42.674;23.350;2023-10-13T13:52:20;95145.53;;;24.38;58.16
23164;BME280;31429;42.674;23.350;2023-10-13T13:53:41;95142.19;;;24.27;63.96
23164;BME280;31429;42.674;23.350;2023-10-13T13:55:13;95144.13;;;24.25;65.68
23164;BME280;31429;42.674;23.350;2023-10-13T13:59:05;95143.31;;;23.62;67.62
23164;BME280;31429;42.674;23.350;2023-10-13T14:13:24;95134.50;;;24.04;48.78
23164;BME280;31429;42.674;23.350;2023-10-13T14:14:44;95136.16;;;24.06;48.81
23164;BME280;31429;42.674;23.350;2023-10-13T14:16:35;95144.81;;;24.06;47.36
23164;BME280;31429;42.674;23.350;2023-10-13T14:17:37;95138.84;;;24.15;47.81
23164;BME280;31429;42.674;23.350;2023-10-13T14:18:44;95140.13;;;24.21;47.79
23164;BME280;31429;42.674;23.350;2023-10-13T14:19:45;95138.13;;;24.13;46.99
23164;BME280;31429;42.674;23.350;2023-10-13T14:20:46;95137.69;;;24.08;48.30
23164;BME280;31429;42.674;23.350;2023-10-13T14:21:47;95137.06;;;23.95;47.15
23164;BME280;31429;42.674;23.350;2023-10-13T14:22:54;95131.03;;;24.04;47.06
23164;BME280;31429;42.674;23.350;2023-10-13T14:23:54;95144.47;;;24.11;46.45
23164;BME280;31429;42.674;23.350;2023-10-13T14:25:23;95140.53;;;24.05;58.83
23164;BME280;31429;42.674;23.350;2023-10-13T14:26:47;95139.72;;;24.04;48.40
23164;BME280;31429;42.674;23.350;2023-10-13T14:27:48;95135.22;;;24.07;47.90
23164;BME280;31429;42.674;23.350;2023-10-13T14:28:50;95131.63;;;24.08;47.96
23164;BME280;31429;42.674;23.350;2023-10-13T14:30:28;95137.41;;;24.32;54.65
23164;BME280;31429;42.674;23.350;2023-10-13T14:31:32;95145.03;;;24.44;54.84
23164;BME280;31429;42.674;23.350;2023-10-13T14:32:32;95139.84;;;24.54;59.50
23164;BME280;31429;42.674;23.350;2023-10-13T14:33:39;95136.19;;;24.36;57.24
23164;BME280;31429;42.674;23.350;2023-10-13T14:34:40;95132.88;;;24.34;58.92
23164;BME280;31429;42.674;23.350;2023-10-13T14:35:43;95129.13;;;24.27;56.12
23164;BME280;31429;42.674;23.350;2023-10-13T14:36:47;95135.91;;;24.29;58.91
23164;BME280;31429;42.674;23.350;2023-10-13T14:37:48;95139.94;;;24.43;59.33
23164;BME280;31429;42.674;23.350;2023-10-13T14:38:49;95131.66;;;24.38;62.14
23164;BME280;31429;42.674;23.350;2023-10-13T14:41:58;95133.53;;;24.26;48.89
23164;BME280;31429;42.674;23.350;2023-10-13T14:43:00;95135.22;;;24.37;56.06
23164;BME280;31429;42.674;23.350;2023-10-13T14:44:03;95131.09;;;24.34;57.65
23164;BME280;31429;42.674;23.350;2023-10-13T14:45:23;95132.19;;;24.32;49.14
23164;BME280;31429;42.674;23.350;2023-10-13T14:46:23;95131.34;;;24.31;51.50
23164;BME280;31429;42.674;23.350;2023-10-13T14:47:25;95132.22;;;24.41;53.90
23164;BME280;31429;42.674;23.350;2023-10-13T14:48:25;95132.38;;;24.49;52.29
23164;BME280;31429;42.674;23.350;2023-10-13T14:49:26;95137.22;;;24.54;56.82
23164;BME280;31429;42.674;23.350;2023-10-13T14:50:27;95127.97;;;24.50;49.73
23164;BME280;31429;42.674;23.350;2023-10-13T14:51:29;95135.97;;;24.48;51.23
23164;BME280;31429;42.674;23.350;2023-10-13T14:52:29;95136.81;;;24.49;51.77
23164;BME280;31429;42.674;23.350;2023-10-13T14:53:32;95126.50;;;24.57;53.08
23164;BME280;31429;42.674;23.350;2023-10-13T14:54:33;95124.00;;;24.46;48.21
23164;BME280;31429;42.674;23.350;2023-10-13T14:55:33;95125.47;;;24.39;48.17
23164;BME280;31429;42.674;23.350;2023-10-13T14:56:40;95128.91;;;24.39;52.48
23164;BME280;31429;42.674;23.350;2023-10-13T14:57:42;95138.78;;;24.36;48.51
23164;BME280;31429;42.674;23.350;2023-10-13T14:58:44;95130.25;;;24.34;48.66
23164;BME280;31429;42.674;23.350;2023-10-13T14:59:46;95132.72;;;24.35;48.00
23164;BME280;31429;42.674;23.350;2023-10-13T15:00:48;95134.72;;;24.43;50.39
23164;BME280;31429;42.674;23.350;2023-10-13T15:01:49;95126.88;;;24.52;54.91
23164;BME280;31429;42.674;23.350;2023-10-13T15:02:51;95124.09;;;24.44;50.23
23164;BME280;31429;42.674;23.350;2023-10-13T15:03:52;95128.34;;;24.36;48.79
23164;BME280;31429;42.674;23.350;2023-10-13T15:04:56;95130.78;;;24.28;49.97
23164;BME280;31429;42.674;23.350;2023-10-13T15:05:58;95126.38;;;23.98;50.19
23164;BME280;31429;42.674;23.350;2023-10-13T15:06:59;95125.72;;;23.85;49.96
23164;BME280;31429;42.674;23.350;2023-10-13T15:08:02;95124.44;;;23.79;49.79
23164;BME280;31429;42.674;23.350;2023-10-13T15:17:15;95138.75;;;23.12;52.82
23164;BME280;31429;42.674;23.350;2023-10-13T15:18:16;95134.47;;;23.11;50.51
23164;BME280;31429;42.674;23.350;2023-10-13T15:19:17;95138.97;;;23.20;50.57
23164;BME280;31429;42.674;23.350;2023-10-13T15:20:18;95141.94;;;23.15;50.34
23164;BME280;31429;42.674;23.350;2023-10-13T15:21:19;95146.44;;;23.24;50.79
23164;BME280;31429;42.674;23.350;2023-10-13T15:22:21;95143.94;;;23.23;49.89
23164;BME280;31429;42.674;23.350;2023-10-13T15:23:28;95143.28;;;23.30;50.75
23164;BME280;31429;42.674;23.350;2023-10-13T15:24:31;95144.63;;;23.25;53.02